METAR Data
IDs: Format: Raw Decoded Include TAF

Data at: 0101 UTC 06 Dec 2019

KPYM 060052Z AUTO 27013G19KT 10SM CLR 01/M08 A2983 RMK AO2 SLP104 T00111078
KPYM 052352Z AUTO 27008G19KT 10SM OVC070 02/M06 A2981 RMK AO2 PK WND 26027/2334 SLP096 T00221061 10056 20022 51040
KPYM 052252Z AUTO 27009KT 10SM OVC065 03/M05 A2979 RMK AO2 SLP087 T00281050
KPYM 052152Z AUTO 27009KT 10SM OVC060 03/M04 A2974 RMK AO2 SLP071 T00331039
KPYM 052052Z AUTO 27008KT 10SM OVC055 04/M03 A2969 RMK AO2 SLP057 T00391033 53031
KPYM 051952Z AUTO 29010KT 10SM OVC050 04/M03 A2965 RMK AO2 SLP043 T00441033
KPYM 051852Z AUTO 29012G24KT 10SM BKN044 05/M03 A2963 RMK AO2 SLP035 T00501033
KPYM 051752Z AUTO 28012G20KT 10SM CLR 05/M02 A2960 RMK AO2 SLP025 T00501022 10056 21022 53001
KPYM 051652Z AUTO 30011G19KT 10SM CLR 04/M02 A2960 RMK AO2 SLP025 T00441022
KPYM 051552Z AUTO 29009KT 10SM CLR 04/M01 A2960 RMK AO2 SLP024 T00391011
KPYM 051452Z AUTO 27009KT 10SM CLR 02/M01 A2960 RMK AO2 SLP025 T00221011 51016
KPYM 051352Z AUTO 27008KT 10SM CLR 01/M02 A2958 RMK AO2 SLP019 T00111017
KPYM 051252Z AUTO 24005KT 9SM CLR M02/M03 A2957 RMK AO2 SLP015 T10171028
KPYM 051152Z AUTO 24005KT 10SM CLR M02/M03 A2955 RMK AO2 SLP009 I6001 T10171028 11006 21033 53021
KPYM 051052Z AUTO 27003KT 9SM FEW120 M02/M03 A2953 RMK AO2 SLP000 T10221028
KPYM 050952Z AUTO 26003KT 8SM SCT075 BKN100 OVC120 M02/M03 A2950 RMK AO2 SLP992 T10221028
KPYM 050852Z AUTO 24005KT 10SM BKN110 M01/M02 A2949 RMK AO2 SLP988 I3001 T10111022 51006
KPYM 050842Z AUTO 25004KT 8SM SCT110 M02/M03 A2949 RMK AO2 T10171028
KPYM 050835Z AUTO 25004KT 2 1/2SM BR CLR M02/M03 A2949 RMK AO2 T10171028
KPYM 050825Z AUTO 27003KT 1/2SM FZFG CLR M03/M03 A2949 RMK AO2 T10331033
KPYM 050816Z AUTO 25003KT 1 3/4SM BR CLR M03/M03 A2948 RMK AO2 T10331033
KPYM 050752Z AUTO 25004KT 8SM CLR M02/M03 A2948 RMK AO2 SLP985 I1001 T10171028
KPYM 050652Z AUTO 27003KT 3SM BR CLR M02/M02 A2948 RMK AO2 SLP984 T10221022
KPYM 050552Z AUTO 24004KT 10SM SCT090 M01/M02 A2947 RMK AO2 SLP981 T10061022 10011 21006 58001
KPYM 050452Z AUTO 26005KT 10SM BKN070 OVC090 00/M02 A2947 RMK AO2 SLP981 T00001017 400171067
KPYM 050352Z AUTO 25004KT 10SM OVC049 01/M01 A2948 RMK AO2 SLP983 T00061011
KPYM 050252Z AUTO 25004KT 10SM OVC047 01/M01 A2947 RMK AO2 SLP982 T00061011 58003
KPYM 050152Z AUTO 22004KT 10SM OVC045 01/M01 A2947 RMK AO2 SLP982 T00111011
KPYM 050052Z AUTO 22003KT 10SM OVC045 01/M01 A2948 RMK AO2 SLP985 T00061006
KPYM 042352Z AUTO 00000KT 10SM OVC044 01/00 A2948 RMK AO2 SLP985 T00060000 10017 20000 50004
KPYM 042252Z AUTO 00000KT 10SM OVC047 00/M01 A2948 RMK AO2 SLP985 T00001006
KPYM 042152Z AUTO 00000KT 5SM BR OVC050 00/M01 A2947 RMK AO2 SLP982 T00001006
KPYM 042052Z AUTO 00000KT 10SM OVC050 01/M01 A2947 RMK AO2 SLP981 T00111006 56006
KPYM 041952Z AUTO 23003KT 10SM OVC048 02/M01 A2947 RMK AO2 SLP981 T00171011
KPYM 041852Z AUTO 22004KT 10SM BKN060 OVC080 02/M01 A2948 RMK AO2 SLP983 T00171011
KPYM 041752Z AUTO 23006KT 10SM FEW060 BKN080 01/M02 A2949 RMK AO2 SLP987 T00111017 10011 21067 58017
KPYM 041652Z AUTO 24007KT 10SM FEW100 01/M02 A2950 RMK AO2 SLP992 T00111017
KPYM 041552Z AUTO 25005KT 10SM CLR 00/M02 A2953 RMK AO2 SLP001 T00001022
KPYM 041452Z AUTO 23005KT 10SM CLR M01/M04 A2954 RMK AO2 SLP004 T10111039 55001
KPYM 041352Z AUTO 22003KT 10SM CLR M03/M06 A2954 RMK AO2 SLP003 T10281056